Time;durP1;ratioP1;P1;durP2;ratioP2;P2;SDS_P1;SDS_P2;PMS_P1;PMS_P2;Temp;Humidity;BMP_temperature;BMP_pressure;BME280_temperature;BME280_humidity;BME280_pressure;Samples;Min_cycle;Max_cycle;Signal;HPM_P1;HPM_P2
2021/04/22 00:01:06;;;;;;;12.38;7.20;;;;;;;12.17;52.96;100436.19;10277447;28;20057;-61
2021/04/22 00:06:07;;;;;;;12.18;6.53;;;;;;;12.05;52.92;100431.88;10269292;28;20547;-61
2021/04/22 00:11:08;;;;;;;9.88;6.68;;;;;;;11.95;53.21;100438.00;10264507;28;20054;-61
2021/04/22 00:16:09;;;;;;;12.55;6.63;;;;;;;11.87;52.87;100445.75;10256560;28;20050;-61
2021/04/22 00:21:10;;;;;;;10.90;6.55;;;;;;;11.83;53.04;100450.50;10264103;28;20051;-61
2021/04/22 00:26:11;;;;;;;9.23;6.35;;;;;;;11.62;53.69;100444.25;10261614;28;20678;-61
2021/04/22 00:31:12;;;;;;;11.35;6.72;;;;;;;11.60;53.81;100452.38;10263884;28;20065;-61
2021/04/22 00:36:13;;;;;;;9.50;6.72;;;;;;;11.55;53.66;100446.59;10262279;28;20106;-61
2021/04/22 00:41:16;;;;;;;8.75;6.32;;;;;;;11.56;53.90;100456.28;10263659;28;20055;-62
2021/04/22 00:46:16;;;;;;;10.63;6.63;;;;;;;11.48;54.14;100456.03;10267605;28;20054;-61
2021/04/22 00:51:18;;;;;;;11.05;5.65;;;;;;;11.09;55.07;100455.63;10255644;28;20452;-61
2021/04/22 00:56:19;;;;;;;7.82;6.18;;;;;;;11.13;54.80;100475.72;10261810;28;20129;-61
2021/04/22 01:01:20;;;;;;;10.35;6.25;;;;;;;11.21;54.05;100480.44;10260902;28;20253;-61
2021/04/22 01:06:22;;;;;;;9.65;5.70;;;;;;;11.15;53.69;100476.44;10258430;28;20054;-61
2021/04/22 01:11:29;;;;;;;9.02;5.60;;;;;;;11.04;53.08;100481.78;10268062;28;20046;-61
2021/04/22 01:16:30;;;;;;;10.82;5.20;;;;;;;10.89;53.35;100487.31;10259658;28;20204;-60
2021/04/22 01:21:31;;;;;;;9.68;5.50;;;;;;;10.82;52.72;100502.09;10253844;28;20047;-61
2021/04/22 01:26:32;;;;;;;8.25;4.10;;;;;;;10.80;52.41;100498.72;10254858;28;20097;-61
2021/04/22 01:31:34;;;;;;;10.02;4.78;;;;;;;10.29;53.81;100509.69;10258709;28;20047;-61
2021/04/22 01:36:41;;;;;;;9.15;5.03;;;;;;;10.49;53.70;100511.69;10260493;28;20050;-66
2021/04/22 01:41:42;;;;;;;9.07;5.35;;;;;;;10.44;53.42;100528.00;10250505;28;20117;-61
2021/04/22 01:46:43;;;;;;;6.60;4.22;;;;;;;10.35;53.07;100535.84;10252945;28;20082;-61
2021/04/22 01:51:44;;;;;;;8.43;4.60;;;;;;;10.27;53.41;100550.53;10253147;28;20518;-61
2021/04/22 01:56:45;;;;;;;6.82;4.57;;;;;;;10.27;52.13;100547.88;10267739;28;20401;-61
2021/04/22 02:01:46;;;;;;;6.72;3.63;;;;;;;10.08;52.52;100552.88;10264027;28;20122;-62
2021/04/22 02:06:47;;;;;;;7.25;3.45;;;;;;;9.91;51.85;100562.94;10264859;28;20066;-62
2021/04/22 02:11:48;;;;;;;10.02;3.20;;;;;;;10.00;50.90;100566.75;10260221;28;20054;-62
2021/04/22 02:16:49;;;;;;;7.13;2.90;;;;;;;9.79;51.04;100579.78;10258546;28;20055;-61
2021/04/22 02:21:51;;;;;;;6.15;2.72;;;;;;;9.78;50.93;100588.72;10263457;28;20050;-61
2021/04/22 02:26:52;;;;;;;7.63;3.08;;;;;;;9.74;50.40;100589.88;10267975;28;20066;-61
2021/04/22 02:31:53;;;;;;;5.78;2.40;;;;;;;9.57;50.66;100598.22;10269332;28;20047;-62
2021/04/22 02:36:54;;;;;;;6.35;2.22;;;;;;;9.35;50.93;100605.91;10263896;28;20057;-62
2021/04/22 02:41:55;;;;;;;7.95;2.53;;;;;;;9.46;50.41;100617.59;10265579;28;20409;-61
2021/04/22 02:47:12;;;;;;;7.18;2.47;;;;;;;9.38;50.71;100608.34;10264182;28;20051;-61
2021/04/22 02:52:13;;;;;;;6.68;2.05;;;;;;;9.38;50.19;100608.34;10272740;28;20058;-61
2021/04/22 02:57:14;;;;;;;6.93;1.77;;;;;;;9.03;51.33;100616.06;10264089;28;20504;-60
2021/04/22 03:02:15;;;;;;;4.60;2.10;;;;;;;8.95;51.47;100624.56;10257966;28;20054;-61
2021/04/22 03:07:17;;;;;;;9.20;2.20;;;;;;;8.98;51.45;100629.69;10269460;28;20059;-65
2021/04/22 03:12:18;;;;;;;6.60;2.00;;;;;;;8.96;51.53;100631.59;10264545;28;20109;-62
2021/04/22 03:17:19;;;;;;;6.78;2.22;;;;;;;8.81;51.68;100644.09;10263781;28;20131;-61
2021/04/22 03:22:20;;;;;;;7.70;2.38;;;;;;;8.84;51.98;100649.19;10260205;28;20587;-61
2021/04/22 03:27:21;;;;;;;5.90;2.10;;;;;;;8.82;51.96;100648.44;10264461;28;20047;-62
2021/04/22 03:32:22;;;;;;;10.15;2.65;;;;;;;8.76;52.01;100651.50;10264501;28;20047;-62
2021/04/22 03:37:23;;;;;;;5.20;1.95;;;;;;;8.66;52.06;100650.41;10263528;28;20047;-61
2021/04/22 03:42:24;;;;;;;7.18;2.95;;;;;;;8.58;52.35;100647.41;10256864;28;20051;-61
2021/04/22 03:47:25;;;;;;;5.47;2.50;;;;;;;8.55;52.39;100656.41;10268921;28;20070;-61
2021/04/22 03:52:26;;;;;;;4.50;1.90;;;;;;;8.54;52.85;100656.53;10268152;28;20047;-61
2021/04/22 03:57:27;;;;;;;7.40;2.13;;;;;;;8.48;52.36;100663.94;10272441;28;20493;-61
2021/04/22 04:02:28;;;;;;;8.13;2.55;;;;;;;8.52;52.42;100674.34;10255166;28;20057;-61
2021/04/22 04:07:29;;;;;;;7.57;2.40;;;;;;;8.49;52.41;100675.41;10264101;28;20093;-61
2021/04/22 04:12:30;;;;;;;8.13;2.65;;;;;;;8.51;51.81;100673.47;10268278;28;20120;-61
2021/04/22 04:17:31;;;;;;;7.70;2.70;;;;;;;8.40;52.19;100682.13;10264333;28;20042;-60
2021/04/22 04:22:33;;;;;;;7.13;2.53;;;;;;;8.36;52.76;100696.56;10266948;28;20133;-61
2021/04/22 04:27:34;;;;;;;11.98;4.13;;;;;;;8.22;53.15;100691.25;10267214;28;20060;-61
2021/04/22 04:32:34;;;;;;;10.43;3.20;;;;;;;8.20;52.22;100698.47;10257130;28;20046;-61
2021/04/22 04:37:36;;;;;;;5.38;2.70;;;;;;;8.08;51.47;100703.59;10262521;28;20453;-61
2021/04/22 04:42:39;;;;;;;8.68;2.83;;;;;;;8.01;50.86;100718.16;10263519;28;20045;-61
2021/04/22 04:47:40;;;;;;;9.43;2.92;;;;;;;7.65;51.45;100716.84;10277586;28;20054;-61
2021/04/22 04:52:42;;;;;;;9.40;3.00;;;;;;;7.88;50.81;100743.72;10261767;28;20050;-61
2021/04/22 04:57:44;;;;;;;8.57;3.10;;;;;;;7.96;50.45;100741.47;10267463;28;20611;-62
2021/04/22 05:02:46;;;;;;;10.73;3.55;;;;;;;7.89;50.13;100751.59;10263565;28;20081;-62
2021/04/22 05:07:47;;;;;;;9.20;3.60;;;;;;;7.92;50.38;100767.31;10242094;28;20051;-61
2021/04/22 05:12:48;;;;;;;10.38;3.38;;;;;;;7.98;49.88;100766.09;10247622;28;20055;-62
2021/04/22 05:17:49;;;;;;;9.27;3.28;;;;;;;7.95;49.75;100775.06;10242151;28;20561;-62
2021/04/22 05:22:50;;;;;;;9.50;3.85;;;;;;;7.97;49.04;100777.63;10245492;28;20055;-62
2021/04/22 05:27:51;;;;;;;13.05;5.00;;;;;;;8.07;48.93;100786.72;10250933;28;20106;-60
2021/04/22 05:32:52;;;;;;;15.48;5.07;;;;;;;8.12;48.77;100789.09;10250046;28;20537;-61
2021/04/22 05:37:54;;;;;;;11.70;3.80;;;;;;;8.17;48.06;100791.47;10237884;28;20062;-60
2021/04/22 05:42:54;;;;;;;8.85;3.60;;;;;;;8.06;47.88;100795.66;10228141;28;20058;-61
2021/04/22 05:47:55;;;;;;;9.93;3.30;;;;;;;8.12;47.83;100797.91;10236389;28;20047;-62
2021/04/22 05:52:57;;;;;;;10.65;3.42;;;;;;;8.19;47.69;100810.78;10222334;28;20066;-61
2021/04/22 05:58:00;;;;;;;7.45;3.30;;;;;;;8.27;47.98;100813.81;10227548;28;20054;-62
2021/04/22 06:03:01;;;;;;;11.98;3.63;;;;;;;8.39;47.21;100817.50;10258842;28;20070;-61
2021/04/22 06:08:03;;;;;;;11.60;3.58;;;;;;;8.35;47.36;100837.22;10259828;28;20050;-61
2021/04/22 06:13:04;;;;;;;13.27;4.00;;;;;;;8.51;47.15;100839.81;10265643;28;20044;-61
2021/04/22 06:18:06;;;;;;;14.40;4.68;;;;;;;9.04;48.84;100835.53;10263845;28;20081;-58
2021/04/22 06:23:07;;;;;;;11.30;4.10;;;;;;;9.49;45.76;100840.59;10244217;23;20114;-61
2021/04/22 06:28:08;;;;;;;9.82;4.00;;;;;;;8.85;46.30;100857.09;10231509;28;20058;-56
2021/04/22 06:33:09;;;;;;;12.10;4.65;;;;;;;8.94;45.44;100850.38;10247716;28;20423;-59
2021/04/22 06:38:13;;;;;;;9.27;4.00;;;;;;;8.93;45.56;100849.53;10246505;28;20062;-56
2021/04/22 06:43:15;;;;;;;15.13;5.10;;;;;;;9.25;44.18;100858.97;10249722;28;20777;-57
2021/04/22 06:48:17;;;;;;;11.43;4.40;;;;;;;9.13;44.51;100858.00;10247034;28;20057;-56
2021/04/22 06:53:18;;;;;;;9.75;4.40;;;;;;;9.13;43.74;100872.13;10251347;28;20051;-57
2021/04/22 06:58:19;;;;;;;13.70;4.40;;;;;;;8.79;42.99;100886.69;10251913;28;20671;-58
2021/04/22 07:03:20;;;;;;;13.25;4.30;;;;;;;8.77;43.05;100881.50;10243964;28;20137;-59
2021/04/22 07:08:21;;;;;;;16.30;4.50;;;;;;;8.95;43.11;100899.88;10256930;28;20043;-55
2021/04/22 07:13:22;;;;;;;10.40;4.95;;;;;;;9.24;42.34;100889.19;10258410;28;20471;-55
2021/04/22 07:18:23;;;;;;;9.40;3.50;;;;;;;9.31;41.81;100901.13;10267104;28;20070;-61
2021/04/22 07:23:24;;;;;;;9.77;3.08;;;;;;;9.61;41.75;100894.72;10264130;28;20054;-58
2021/04/22 07:28:25;;;;;;;11.43;3.38;;;;;;;9.83;41.56;100900.34;10261246;28;20050;-55
2021/04/22 07:33:31;;;;;;;11.68;3.65;;;;;;;10.04;40.63;100905.16;10263836;28;20416;-56
2021/04/22 07:38:32;;;;;;;8.93;4.00;;;;;;;9.85;41.67;100893.09;10262965;28;20109;-59
2021/04/22 07:43:34;;;;;;;7.72;3.40;;;;;;;9.32;42.64;100887.72;10263334;28;20051;-58
2021/04/22 07:48:35;;;;;;;10.82;3.25;;;;;;;10.02;41.83;100904.41;10252195;28;20055;-56
2021/04/22 07:53:36;;;;;;;10.77;3.40;;;;;;;10.09;41.31;100906.53;10248369;28;20078;-61
2021/04/22 07:58:37;;;;;;;9.27;3.80;;;;;;;10.56;40.27;100906.91;10259287;28;20495;-55
2021/04/22 08:03:38;;;;;;;7.82;3.10;;;;;;;10.56;39.80;100890.09;10262444;28;20062;-60
2021/04/22 08:08:39;;;;;;;5.40;2.60;;;;;;;10.98;39.12;100908.47;10261067;28;20047;-55
2021/04/22 08:13:40;;;;;;;9.65;3.15;;;;;;;11.40;37.77;100909.81;10262861;28;20199;-57
2021/04/22 08:18:43;;;;;;;9.80;3.80;;;;;;;11.79;38.02;100921.13;10262222;28;20047;-57
2021/04/22 08:23:44;;;;;;;11.10;4.65;;;;;;;11.80;37.18;100912.19;10263434;28;20054;-59
2021/04/22 08:28:46;;;;;;;8.07;3.13;;;;;;;11.83;37.13;100917.28;10260688;28;20169;-57
2021/04/22 08:33:53;;;;;;;11.52;4.18;;;;;;;11.93;37.43;100920.13;10262266;28;20051;-56
2021/04/22 08:38:54;;;;;;;8.68;3.17;;;;;;;11.45;37.54;100909.47;10274375;28;20106;-55
2021/04/22 08:43:55;;;;;;;6.05;3.00;;;;;;;12.10;37.26;100923.31;10264464;28;20170;-58
2021/04/22 08:48:56;;;;;;;6.72;3.33;;;;;;;12.61;36.65;100920.28;10250785;28;20534;-55
2021/04/22 08:53:59;;;;;;;8.35;4.25;;;;;;;12.30;36.16;100914.66;10264871;28;20401;-58
2021/04/22 08:59:02;;;;;;;7.40;3.35;;;;;;;12.72;35.91;100922.94;10258820;28;20047;-57
2021/04/22 09:04:05;;;;;;;7.95;3.90;;;;;;;12.69;35.22;100911.66;10258767;28;20126;-53
2021/04/22 09:09:08;;;;;;;8.32;3.67;;;;;;;13.27;34.57;100920.34;10241026;28;20082;-54
2021/04/22 09:14:13;;;;;;;8.00;2.97;;;;;;;13.39;34.50;100921.22;10252767;28;20399;-57
2021/04/22 09:19:21;;;;;;;10.05;3.45;;;;;;;13.61;34.32;100906.88;10260732;28;20054;-59
2021/04/22 09:24:26;;;;;;;8.20;3.42;;;;;;;14.02;31.63;100917.81;10252508;28;20120;-56
2021/04/22 09:29:47;;;;;;;6.68;3.13;;;;;;;14.43;32.09;100905.38;10252551;28;20042;-62
2021/04/22 09:35:02;;;;;;;9.60;3.30;;;;;;;13.54;33.01;100907.53;10247626;28;20047;-53
2021/04/22 09:40:16;;;;;;;7.50;3.53;;;;;;;14.19;31.97;100907.50;10260334;28;20205;-55
2021/04/22 09:45:20;;;;;;;10.52;3.13;;;;;;;15.08;30.45;100907.78;10251248;28;20038;-56
2021/04/22 09:50:33;;;;;;;8.45;3.75;;;;;;;14.79;30.56;100911.22;10263913;28;20493;-57
2021/04/22 09:55:36;;;;;;;7.72;3.45;;;;;;;15.01;30.55;100903.94;10251660;28;20050;-59
2021/04/22 10:00:37;;;;;;;5.95;3.10;;;;;;;14.83;30.65;100904.59;10250171;28;20055;-58
2021/04/22 10:05:40;;;;;;;8.60;3.38;;;;;;;14.72;30.73;100906.53;10259192;28;24807;-56
2021/04/22 10:11:05;;;;;;;5.80;3.58;;;;;;;15.18;30.56;100889.88;10253696;28;20047;-58
2021/04/22 10:16:06;;;;;;;7.10;3.13;;;;;;;16.60;28.88;100900.09;10256710;28;20536;-55
2021/04/22 10:21:07;;;;;;;8.88;4.00;;;;;;;18.03;26.87;100852.88;10255977;28;20054;-56
2021/04/22 10:26:20;;;;;;;9.82;3.90;;;;;;;22.02;21.90;100872.81;10253421;28;20121;-58
2021/04/22 10:31:25;;;;;;;9.73;5.03;;;;;;;24.59;19.80;100888.06;10258264;28;20113;-59
2021/04/22 10:36:26;;;;;;;8.45;3.67;;;;;;;23.46;19.63;100871.59;10250392;28;20054;-54
2021/04/22 10:41:32;;;;;;;5.93;3.20;;;;;;;19.18;24.50;100879.56;10237673;28;20054;-55
2021/04/22 10:46:36;;;;;;;10.25;3.60;;;;;;;18.31;26.04;100877.81;10251029;28;20594;-60
2021/04/22 10:51:38;;;;;;;8.00;3.70;;;;;;;22.73;20.67;100871.59;10252881;28;20051;-55
2021/04/22 10:56:39;;;;;;;10.18;4.15;;;;;;;25.12;17.66;100853.94;10268759;28;20455;-59
2021/04/22 11:01:42;;;;;;;11.10;4.07;;;;;;;29.21;14.79;100859.78;10262253;28;20190;-55
2021/04/22 11:06:44;;;;;;;7.68;3.70;;;;;;;29.43;13.72;100870.25;10245991;28;20051;-57
2021/04/22 11:12:11;;;;;;;8.77;3.75;;;;;;;29.83;13.30;100857.84;10259849;28;20055;-55
2021/04/22 11:17:16;;;;;;;6.85;3.85;;;;;;;29.33;14.47;100864.50;10257366;28;20114;-57
2021/04/22 11:22:26;;;;;;;7.23;3.20;;;;;;;30.22;12.91;100852.69;10262867;28;20053;-58
2021/04/22 11:27:31;;;;;;;9.05;3.75;;;;;;;31.33;12.23;100841.56;10269349;28;20126;-55
2021/04/22 11:32:38;;;;;;;7.30;3.50;;;;;;;31.54;11.86;100847.38;10260455;28;20102;-58
2021/04/22 11:37:47;;;;;;;7.45;3.20;;;;;;;31.38;11.67;100835.31;10259386;28;20050;-59
2021/04/22 11:42:50;;;;;;;7.65;3.30;;;;;;;29.50;13.68;100851.81;10260191;28;20054;-55
2021/04/22 11:48:01;;;;;;;5.75;3.17;;;;;;;29.26;13.92;100818.84;10260488;28;20122;-57
2021/04/22 11:53:06;;;;;;;6.85;2.95;;;;;;;26.55;15.42;100830.88;10249122;28;20051;-57
2021/04/22 11:58:11;;;;;;;5.15;3.08;;;;;;;25.68;16.49;100837.25;10257378;28;20113;-58
2021/04/22 12:03:22;;;;;;;7.88;3.67;;;;;;;24.85;17.31;100822.00;10265025;28;20062;-57
2021/04/22 12:08:50;;;;;;;6.82;3.38;;;;;;;24.37;18.14;100832.00;10255520;28;20043;-55
2021/04/22 12:13:51;;;;;;;7.35;3.80;;;;;;;21.11;21.94;100833.88;10251028;28;20047;-57
2021/04/22 12:18:53;;;;;;;8.82;3.65;;;;;;;20.81;21.99;100834.53;10251151;28;20051;-55
2021/04/22 12:24:05;;;;;;;11.82;4.05;;;;;;;22.23;20.45;100839.56;10257688;28;20223;-59
2021/04/22 12:29:13;;;;;;;8.85;3.67;;;;;;;21.41;20.92;100824.03;10257643;28;20046;-56
2021/04/22 12:34:20;;;;;;;6.88;3.70;;;;;;;21.85;20.86;100822.50;10245027;28;20070;-58
2021/04/22 12:39:30;;;;;;;10.13;3.72;;;;;;;21.36;21.49;100831.81;10262678;28;20057;-57
2021/04/22 12:44:31;;;;;;;6.72;3.65;;;;;;;20.77;22.66;100830.50;10281068;23;20212;-64
2021/04/22 12:49:33;;;;;;;5.72;3.40;;;;;;;21.02;21.84;100830.38;10298551;28;20677;-65
2021/04/22 12:54:34;;;;;;;10.20;3.90;;;;;;;21.11;22.55;100823.88;10297705;28;20097;-66
2021/04/22 12:59:34;;;;;;;8.55;3.50;;;;;;;21.06;22.08;100820.84;10292955;28;20511;-68
2021/04/22 13:04:35;;;;;;;9.10;3.97;;;;;;;21.18;21.23;100803.22;10294362;28;20050;-65
2021/04/22 13:09:37;;;;;;;7.80;3.60;;;;;;;20.90;21.82;100804.75;10293052;28;20042;-65
2021/04/22 13:14:40;;;;;;;9.23;4.45;;;;;;;19.91;22.61;100807.78;10285066;28;20488;-65
2021/04/22 13:19:42;;;;;;;8.63;3.42;;;;;;;20.09;22.57;100792.19;10283698;28;20050;-65
2021/04/22 13:24:44;;;;;;;9.20;4.03;;;;;;;19.94;22.60;100793.91;10292300;28;20559;-62
2021/04/22 13:29:51;;;;;;;7.57;3.22;;;;;;;19.83;23.55;100791.56;10285900;28;20061;-62
2021/04/22 13:34:54;;;;;;;9.07;3.78;;;;;;;19.72;23.31;100795.44;10293862;28;20074;-63
2021/04/22 13:39:55;;;;;;;7.45;4.13;;;;;;;19.42;23.08;100785.13;10296855;28;20447;-65
2021/04/22 13:44:57;;;;;;;5.15;2.88;;;;;;;19.40;22.96;100787.16;10292800;28;20046;-63
2021/04/22 13:50:00;;;;;;;5.93;3.20;;;;;;;19.39;23.52;100774.66;10283626;28;20495;-63
2021/04/22 13:55:02;;;;;;;7.37;2.73;;;;;;;19.38;23.76;100782.94;10293352;28;20053;-63
2021/04/22 14:00:09;;;;;;;8.45;3.92;;;;;;;19.30;23.45;100781.09;10285042;28;20074;-59
2021/04/22 14:05:15;;;;;;;6.28;3.38;;;;;;;19.40;24.07;100784.47;10292527;28;20046;-61
2021/04/22 14:10:28;;;;;;;8.07;3.35;;;;;;;18.97;24.47;100764.84;10289083;28;20054;-64
2021/04/22 14:15:29;;;;;;;5.27;2.90;;;;;;;19.08;24.09;100772.66;10288974;28;20166;-61
2021/04/22 14:20:30;;;;;;;9.05;3.28;;;;;;;18.76;24.71;100775.25;10287519;28;20280;-60
2021/04/22 14:25:31;;;;;;;7.35;4.30;;;;;;;18.46;24.98;100766.72;10288493;28;20113;-61
2021/04/22 14:30:32;;;;;;;5.78;2.40;;;;;;;18.47;24.42;100771.09;10300829;28;20058;-60
2021/04/22 14:35:33;;;;;;;5.25;2.33;;;;;;;18.34;25.15;100775.06;10296352;28;20042;-60
2021/04/22 14:40:35;;;;;;;5.75;2.38;;;;;;;18.23;23.29;100775.38;10295073;28;20333;-60
2021/04/22 14:45:36;;;;;;;5.60;2.67;;;;;;;18.23;23.29;100772.69;10298493;28;20502;-66
2021/04/22 14:50:38;;;;;;;7.32;2.40;;;;;;;17.62;24.82;100767.22;10294164;28;20142;-61
2021/04/22 14:55:39;;;;;;;3.83;2.25;;;;;;;17.89;25.22;100765.41;10296957;28;20062;-61
2021/04/22 15:00:40;;;;;;;8.13;2.92;;;;;;;17.84;24.11;100763.16;10285238;28;20453;-61
2021/04/22 15:05:41;;;;;;;5.75;2.88;;;;;;;17.65;25.13;100772.31;10296725;28;20046;-61
2021/04/22 15:10:42;;;;;;;7.05;2.83;;;;;;;17.66;25.60;100770.47;10288696;28;20051;-62
2021/04/22 15:15:44;;;;;;;6.38;2.92;;;;;;;17.47;24.90;100760.72;10289974;28;20078;-63
2021/04/22 15:20:45;;;;;;;5.75;2.50;;;;;;;17.28;25.51;100767.13;10291992;28;20042;-62
2021/04/22 15:25:46;;;;;;;6.30;2.25;;;;;;;17.23;25.02;100769.44;10299250;28;20769;-63
2021/04/22 15:30:47;;;;;;;6.32;2.78;;;;;;;17.25;25.07;100770.97;10292607;28;20058;-64
2021/04/22 15:35:48;;;;;;;4.20;1.90;;;;;;;17.23;25.00;100770.25;10289174;28;20106;-64
2021/04/22 15:40:50;;;;;;;5.30;2.65;;;;;;;16.56;24.77;100772.44;10295200;28;20122;-63
2021/04/22 15:45:52;;;;;;;6.00;2.80;;;;;;;16.39;25.68;100780.28;10303490;28;20133;-63
2021/04/22 15:50:53;;;;;;;6.00;2.65;;;;;;;16.64;25.21;100774.34;10296111;28;20054;-63
2021/04/22 15:55:54;;;;;;;4.55;2.22;;;;;;;16.59;24.60;100764.91;10295363;28;20050;-63
2021/04/22 16:00:55;;;;;;;4.88;2.17;;;;;;;16.59;24.67;100761.38;10280078;28;20408;-63
2021/04/22 16:05:58;;;;;;;4.22;1.67;;;;;;;16.67;24.93;100774.06;10285382;28;20105;-63
2021/04/22 16:11:00;;;;;;;5.95;1.70;;;;;;;16.28;25.64;100768.88;10276098;28;20142;-63
2021/04/22 16:16:02;;;;;;;5.88;1.95;;;;;;;16.26;25.88;100755.59;10282201;28;20069;-63
2021/04/22 16:21:04;;;;;;;4.68;2.00;;;;;;;16.42;25.91;100761.19;10298283;28;20046;-63
2021/04/22 16:26:07;;;;;;;6.82;1.90;;;;;;;16.40;25.28;100762.31;10296978;28;20054;-63
2021/04/22 16:31:08;;;;;;;6.07;2.10;;;;;;;16.11;25.55;100767.78;10307802;28;20061;-64
2021/04/22 16:36:10;;;;;;;7.97;2.90;;;;;;;15.90;25.99;100767.03;10299179;28;20054;-63
2021/04/22 16:41:11;;;;;;;6.53;2.28;;;;;;;15.71;26.46;100769.72;10283160;28;20059;-62
2021/04/22 16:46:12;;;;;;;5.13;1.92;;;;;;;15.63;26.88;100780.34;10285234;28;20121;-63
2021/04/22 16:51:13;;;;;;;4.72;2.03;;;;;;;15.77;27.05;100777.19;10285963;28;20058;-62
2021/04/22 16:56:14;;;;;;;6.15;1.95;;;;;;;15.87;26.56;100775.38;10285040;28;20679;-62
2021/04/22 17:01:15;;;;;;;7.63;2.17;;;;;;;15.44;27.46;100776.69;10282053;28;20512;-63
2021/04/22 17:06:16;;;;;;;7.00;1.88;;;;;;;15.02;27.98;100774.28;10286710;28;20109;-64
2021/04/22 17:11:19;;;;;;;7.70;2.85;;;;;;;15.08;28.92;100784.44;10283230;28;20081;-63
2021/04/22 17:16:21;;;;;;;4.45;2.20;;;;;;;15.30;28.20;100775.28;10279879;28;20102;-63
2021/04/22 17:21:23;;;;;;;7.05;2.20;;;;;;;15.04;28.19;100780.34;10288429;28;20138;-62
2021/04/22 17:26:24;;;;;;;6.32;2.42;;;;;;;14.96;28.49;100786.41;10295164;28;20042;-62
2021/04/22 17:31:26;;;;;;;5.55;2.22;;;;;;;14.77;28.28;100789.91;10282530;28;20055;-62
2021/04/22 17:36:27;;;;;;;6.88;2.00;;;;;;;14.75;28.31;100780.31;10312042;28;20046;-62
2021/04/22 17:41:28;;;;;;;4.13;2.00;;;;;;;14.71;29.30;100800.31;10312170;28;20055;-63
2021/04/22 17:46:29;;;;;;;7.30;2.22;;;;;;;14.90;29.11;100799.53;10309753;28;20113;-61
2021/04/22 17:51:49;;;;;;;10.75;3.08;;;;;;;15.16;30.48;100805.19;10288484;28;20185;-57
2021/04/22 17:56:50;;;;;;;6.22;2.20;;;;;;;15.38;30.16;100804.06;10283535;28;20059;-56
2021/04/22 18:01:53;;;;;;;4.30;2.13;;;;;;;15.47;30.03;100797.03;10280193;28;21671;-54
2021/04/22 18:06:56;;;;;;;5.65;1.90;;;;;;;15.40;30.03;100815.50;10290254;28;20042;-55
2021/04/22 18:11:57;;;;;;;5.72;2.42;;;;;;;15.25;30.25;100806.19;10291493;28;20054;-53
2021/04/22 18:16:58;;;;;;;8.02;2.60;;;;;;;15.01;30.74;100818.16;10289928;28;20050;-56
2021/04/22 18:21:59;;;;;;;6.13;2.65;;;;;;;15.05;30.87;100826.78;10255513;28;20061;-56
2021/04/22 18:27:00;;;;;;;4.70;2.45;;;;;;;15.00;31.11;100829.88;10248630;28;20051;-56
2021/04/22 18:32:01;;;;;;;6.93;2.30;;;;;;;14.97;31.47;100854.28;10254259;28;20108;-55
2021/04/22 18:37:02;;;;;;;6.60;3.05;;;;;;;14.95;31.59;100859.78;10256232;28;20058;-65
2021/04/22 18:42:05;;;;;;;6.07;3.42;;;;;;;14.75;32.29;100861.53;10282801;23;20045;-58
2021/04/22 18:47:06;;;;;;;4.78;2.47;;;;;;;14.59;32.97;100872.75;10224420;28;20118;-60
2021/04/22 18:52:08;;;;;;;8.02;2.90;;;;;;;14.32;33.20;100871.50;10228156;28;20043;-58
2021/04/22 18:57:09;;;;;;;8.77;3.70;;;;;;;14.02;34.42;100891.03;10227926;28;20089;-59
2021/04/22 19:02:10;;;;;;;9.07;4.45;;;;;;;13.94;34.74;100898.84;10230276;28;20071;-56
2021/04/22 19:07:12;;;;;;;8.93;3.42;;;;;;;13.77;35.01;100909.16;10234713;28;20662;-58
2021/04/22 19:12:13;;;;;;;5.88;3.45;;;;;;;13.65;35.03;100904.81;10250435;28;20133;-57
2021/04/22 19:17:16;;;;;;;7.60;4.05;;;;;;;13.56;35.45;100917.13;10234505;28;20080;-57
2021/04/22 19:22:18;;;;;;;11.93;4.32;;;;;;;13.40;35.33;100927.41;10236417;28;20427;-58
2021/04/22 19:27:19;;;;;;;9.68;3.97;;;;;;;13.24;36.25;100927.75;10238096;28;20168;-57
2021/04/22 19:32:20;;;;;;;10.57;3.85;;;;;;;13.24;36.25;100950.00;10236323;28;20070;-57
2021/04/22 19:37:33;;;;;;;11.55;4.63;;;;;;;13.14;36.59;100956.22;10238150;28;20671;-57
2021/04/22 19:42:34;;;;;;;118.88;85.93;;;;;;;13.06;36.63;100968.38;10237412;28;20067;-57
2021/04/22 19:47:35;;;;;;;14.35;10.80;;;;;;;12.94;37.13;100966.69;10239138;28;20055;-57
2021/04/22 19:52:36;;;;;;;13.20;8.98;;;;;;;12.89;37.09;100969.69;10235594;28;20058;-57
2021/04/22 19:57:41;;;;;;;7.13;4.18;;;;;;;12.66;37.88;100968.00;10234763;28;20148;-56
2021/04/22 20:02:44;;;;;;;9.77;5.55;;;;;;;12.78;38.00;100990.22;10236817;28;20043;-57
2021/04/22 20:07:47;;;;;;;10.23;4.70;;;;;;;12.69;38.21;100989.13;10244296;28;20110;-57
2021/04/22 20:12:49;;;;;;;7.53;4.32;;;;;;;12.64;38.56;100994.81;10242429;28;20051;-57
2021/04/22 20:17:51;;;;;;;9.70;4.57;;;;;;;12.56;38.75;100999.88;10233089;28;20133;-56
2021/04/22 20:22:55;;;;;;;10.73;5.05;;;;;;;12.36;38.75;100982.75;10235758;28;20058;-57
2021/04/22 20:27:56;;;;;;;8.43;4.77;;;;;;;12.40;38.91;101007.38;10237102;28;20113;-56
2021/04/22 20:32:57;;;;;;;10.60;4.65;;;;;;;12.24;39.13;101013.88;10236443;28;20054;-57
2021/04/22 20:38:09;;;;;;;9.38;4.85;;;;;;;12.33;39.15;101012.34;10238285;28;20098;-57
2021/04/22 20:43:10;;;;;;;8.68;4.60;;;;;;;12.30;39.04;101021.44;10235428;28;20136;-59
2021/04/22 20:48:11;;;;;;;11.90;5.30;;;;;;;12.18;39.58;101025.03;10227482;28;20141;-58
2021/04/22 20:53:12;;;;;;;8.32;4.72;;;;;;;12.09;39.88;101028.38;10233862;28;20496;-56
2021/04/22 20:58:13;;;;;;;8.77;4.47;;;;;;;12.05;40.08;101024.25;10261932;28;20512;-57
2021/04/22 21:03:14;;;;;;;10.40;5.15;;;;;;;12.03;39.88;101027.03;10256675;28;20067;-61
2021/04/22 21:08:16;;;;;;;7.80;4.65;;;;;;;12.01;40.25;101027.13;10255756;28;20083;-58
2021/04/22 21:13:17;;;;;;;7.85;5.55;;;;;;;11.98;40.11;101035.38;10270341;28;20070;-57
2021/04/22 21:18:22;;;;;;;11.57;5.72;;;;;;;11.80;40.50;101023.34;10255089;28;20049;-57
2021/04/22 21:23:35;;;;;;;10.77;5.93;;;;;;;11.77;41.22;101034.22;10255735;28;20555;-58
2021/04/22 21:28:36;;;;;;;10.43;5.88;;;;;;;11.67;41.12;101029.56;10267285;28;20420;-57
2021/04/22 21:33:37;;;;;;;8.68;5.15;;;;;;;11.66;41.70;101024.34;10248870;28;20459;-57
2021/04/22 21:38:39;;;;;;;8.82;5.70;;;;;;;11.59;41.16;101034.63;10267037;28;20049;-59
2021/04/22 21:43:40;;;;;;;9.50;5.57;;;;;;;11.50;41.29;101032.63;10269232;28;20778;-56
2021/04/22 21:48:42;;;;;;;14.90;9.73;;;;;;;11.41;41.70;101046.59;10262508;28;20055;-59
2021/04/22 21:53:44;;;;;;;17.48;12.38;;;;;;;11.41;41.87;101051.94;10260076;28;20634;-58
2021/04/22 21:58:46;;;;;;;16.67;10.20;;;;;;;11.31;41.34;101035.75;10251607;28;20062;-59
2021/04/22 22:03:48;;;;;;;11.27;4.95;;;;;;;11.31;41.47;101049.91;10261171;28;20051;-60
2021/04/22 22:08:51;;;;;;;11.55;5.95;;;;;;;11.18;41.48;101050.91;10292439;28;20059;-57
2021/04/22 22:13:54;;;;;;;11.82;5.53;;;;;;;11.17;41.77;101044.72;10273417;28;20727;-57
2021/04/22 22:18:55;;;;;;;10.02;5.68;;;;;;;11.07;41.88;101038.34;10268963;28;20074;-57
2021/04/22 22:23:56;;;;;;;8.93;5.20;;;;;;;10.96;41.73;101023.94;10287451;28;20120;-57
2021/04/22 22:28:58;;;;;;;12.15;5.63;;;;;;;10.90;42.01;101035.03;10275258;28;20434;-57
2021/04/22 22:33:59;;;;;;;9.57;5.47;;;;;;;11.03;42.07;101059.00;10273020;28;20061;-56
2021/04/22 22:39:08;;;;;;;9.30;6.25;;;;;;;10.99;41.84;101062.84;10261791;28;20133;-55
2021/04/22 22:44:10;;;;;;;9.65;4.72;;;;;;;10.94;41.91;101054.31;10263572;28;22719;-57
2021/04/22 22:49:11;;;;;;;11.32;6.00;;;;;;;10.91;41.70;101065.19;10271236;28;20046;-57
2021/04/22 22:54:12;;;;;;;8.32;5.90;;;;;;;10.87;42.11;101059.22;10275747;28;20546;-56
2021/04/22 22:59:14;;;;;;;10.85;5.57;;;;;;;10.83;41.96;101056.88;10279107;28;20499;-58
2021/04/22 23:04:15;;;;;;;14.85;5.25;;;;;;;10.78;42.28;101076.69;10272033;28;20062;-57
2021/04/22 23:09:16;;;;;;;9.27;4.40;;;;;;;10.79;42.63;101073.06;10278765;28;20054;-58